createdAt,value
2023-04-15T21:03:42.586Z,24.6
2023-04-15T21:06:42.515Z,24.5
2023-04-15T21:09:42.534Z,25.9
2023-04-15T21:12:42.560Z,26.4
2023-04-15T21:15:42.568Z,27.7
2023-04-15T21:18:42.594Z,30
2023-04-15T21:21:42.601Z,31.1
2023-04-15T21:24:42.620Z,32.5
2023-04-15T21:27:42.631Z,32.2
2023-04-15T21:30:42.663Z,32.5
2023-04-15T21:33:42.675Z,32
2023-04-15T21:36:42.690Z,30.7
2023-04-15T21:39:42.754Z,30.7
2023-04-15T21:42:42.735Z,29.4
2023-04-15T21:45:42.779Z,29.4
2023-04-15T21:48:42.777Z,28.9
2023-04-15T21:51:42.824Z,28.6
2023-04-15T21:54:42.822Z,29.3
2023-04-15T21:57:42.843Z,29
2023-04-15T22:00:42.864Z,29.9
2023-04-15T22:03:43.101Z,29.9
2023-04-15T22:06:42.909Z,31.9
2023-04-15T22:09:42.929Z,32
2023-04-15T22:12:42.951Z,32.5
2023-04-15T22:15:42.982Z,33
2023-04-15T22:18:43.007Z,33
2023-04-15T22:21:43.028Z,33.6
2023-04-15T22:24:43.036Z,35.8
2023-04-15T22:27:43.059Z,35.6
2023-04-15T22:30:43.077Z,37.4
2023-04-15T22:33:43.116Z,36.7
2023-04-15T22:36:43.130Z,38.3
2023-04-15T22:39:43.142Z,38.1
2023-04-15T22:42:43.174Z,38
2023-04-15T22:45:43.234Z,36.9
2023-04-15T22:48:43.215Z,36.7
2023-04-15T22:51:43.249Z,35.8
2023-04-15T22:54:43.247Z,36.5
2023-04-15T22:57:43.273Z,35.2
2023-04-15T23:00:43.290Z,35.7
2023-04-15T23:03:56.545Z,35.4
2023-04-15T23:06:43.345Z,35.8
2023-04-15T23:09:43.364Z,36.2
2023-04-15T23:12:43.400Z,35.9
2023-04-15T23:15:43.433Z,35.8
2023-04-15T23:18:43.452Z,35.8
2023-04-15T23:21:43.479Z,36.3
2023-04-15T23:24:43.491Z,35.4
2023-04-15T23:27:43.505Z,35.6
2023-04-15T23:30:43.532Z,34.8
2023-04-15T23:33:43.555Z,35.3
2023-04-15T23:36:43.583Z,35.5
2023-04-15T23:39:43.613Z,37.3
2023-04-15T23:42:43.658Z,37.6
2023-04-15T23:45:43.670Z,38.8
2023-04-15T23:48:43.684Z,39.7
2023-04-15T23:51:43.711Z,39.4
2023-04-15T23:54:43.726Z,39.8
2023-04-15T23:57:43.758Z,39.2
